createdAt,value
2022-10-25T00:02:14.392Z,99.90
2022-10-25T00:06:17.435Z,99.90
2022-10-25T00:10:23.498Z,99.90
2022-10-25T00:14:28.553Z,99.90
2022-10-25T00:18:32.715Z,99.90
2022-10-25T00:22:35.550Z,99.90
2022-10-25T00:26:40.329Z,99.90
2022-10-25T00:30:43.170Z,99.90
2022-10-25T00:34:47.312Z,99.90
2022-10-25T00:38:50.450Z,99.90
2022-10-25T00:42:53.223Z,99.90
2022-10-25T00:46:56.199Z,99.90
2022-10-25T00:51:00.423Z,99.90
2022-10-25T00:55:06.287Z,99.90
2022-10-25T00:59:11.654Z,99.90
2022-10-25T01:03:15.646Z,99.90
2022-10-25T01:07:19.783Z,99.90
2022-10-25T01:11:22.762Z,99.90
2022-10-25T01:15:34.564Z,99.90
2022-10-25T01:20:07.200Z,99.90
2022-10-25T01:25:02.692Z,99.90
2022-10-25T01:29:28.050Z,99.90
2022-10-25T01:33:38.402Z,99.90
2022-10-25T01:37:46.740Z,99.90
2022-10-25T01:41:58.691Z,99.90
2022-10-25T01:46:09.454Z,99.90
2022-10-25T01:50:19.267Z,99.90
2022-10-25T01:54:24.911Z,99.90
2022-10-25T01:58:37.869Z,99.90
2022-10-25T02:02:55.389Z,99.90
2022-10-25T02:07:05.510Z,99.90
2022-10-25T02:11:18.032Z,99.90
2022-10-25T02:15:26.102Z,99.90
2022-10-25T02:19:33.848Z,99.90
2022-10-25T02:23:38.710Z,99.90
2022-10-25T02:27:42.300Z,99.90
2022-10-25T02:31:46.019Z,99.90
2022-10-25T02:36:12.902Z,99.90
2022-10-25T02:40:17.121Z,99.90
2022-10-25T02:44:19.962Z,99.80
2022-10-25T02:48:22.732Z,99.90
2022-10-25T02:52:25.618Z,99.90
2022-10-25T02:56:29.789Z,99.90
2022-10-25T03:00:32.793Z,99.90
2022-10-25T03:04:35.674Z,99.90
2022-10-25T03:08:39.769Z,99.90
2022-10-25T03:12:44.129Z,99.90
2022-10-25T03:20:51.638Z,99.90
2022-10-25T03:24:54.423Z,99.90
2022-10-25T03:28:58.607Z,99.90
2022-10-25T03:33:01.588Z,99.90
2022-10-25T03:37:04.489Z,99.90
2022-10-25T03:41:07.626Z,99.90
2022-10-25T03:45:12.831Z,99.90
2022-10-25T03:49:15.649Z,99.90
2022-10-25T03:53:18.486Z,99.80
2022-10-25T03:57:21.427Z,99.80
2022-10-25T04:01:25.728Z,99.80
2022-10-25T04:05:29.547Z,99.80
2022-10-25T04:09:32.657Z,99.70
2022-10-25T04:13:35.462Z,99.70
2022-10-25T04:17:39.781Z,99.80
2022-10-25T04:21:42.734Z,99.90
2022-10-25T04:25:45.646Z,99.90
2022-10-25T04:29:48.481Z,99.90
2022-10-25T04:33:54.195Z,99.90
2022-10-25T04:37:58.488Z,99.90
2022-10-25T04:42:01.308Z,99.90
2022-10-25T04:46:04.677Z,99.90
2022-10-25T04:50:09.691Z,99.90
2022-10-25T04:54:13.288Z,99.90
2022-10-25T04:58:16.165Z,99.90
2022-10-25T05:02:18.991Z,99.90
2022-10-25T05:06:25.345Z,99.90
2022-10-25T05:10:28.206Z,99.90
2022-10-25T05:14:31.051Z,99.90
2022-10-25T05:18:35.114Z,99.90
2022-10-25T05:22:39.300Z,99.90
2022-10-25T05:26:42.560Z,99.90
2022-10-25T05:30:45.660Z,99.90
2022-10-25T05:34:48.452Z,99.90
2022-10-25T05:38:53.139Z,99.90
2022-10-25T05:42:55.962Z,99.90
2022-10-25T05:46:58.901Z,99.90
2022-10-25T05:51:32.640Z,99.90
2022-10-25T05:55:37.349Z,99.90
2022-10-25T05:59:40.135Z,99.90
2022-10-25T06:03:42.970Z,99.90
2022-10-25T06:07:45.770Z,99.90
2022-10-25T06:11:49.925Z,99.90
2022-10-25T06:15:52.712Z,99.90
2022-10-25T06:19:55.526Z,99.90
2022-10-25T06:24:00.230Z,99.90
2022-10-25T06:28:04.631Z,99.90
2022-10-25T06:32:07.464Z,99.90
2022-10-25T06:36:14.945Z,99.90
2022-10-25T06:40:17.916Z,99.90
2022-10-25T06:44:22.109Z,99.90
2022-10-25T06:48:25.189Z,99.90
2022-10-25T06:52:29.516Z,99.90
2022-10-25T06:56:32.912Z,99.90
2022-10-25T07:00:37.071Z,99.90
2022-10-25T07:04:39.874Z,99.90
2022-10-25T07:08:45.000Z,99.90
2022-10-25T07:12:47.782Z,99.90
2022-10-25T07:16:51.920Z,99.90
2022-10-25T07:20:59.723Z,99.90
2022-10-25T07:25:02.548Z,99.90
2022-10-25T07:29:06.013Z,99.90
2022-10-25T07:33:10.183Z,99.90
2022-10-25T07:37:12.964Z,99.90
2022-10-25T07:41:15.872Z,99.90
2022-10-25T07:45:22.253Z,99.90
2022-10-25T07:49:28.630Z,99.90
2022-10-25T07:53:31.477Z,99.90
2022-10-25T07:57:34.306Z,99.90
2022-10-25T08:01:37.679Z,99.90
2022-10-25T08:05:41.895Z,99.90
2022-10-25T08:09:47.094Z,99.90
2022-10-25T08:13:51.034Z,99.90
2022-10-25T08:17:59.035Z,99.90
2022-10-25T08:22:03.591Z,99.90
2022-10-25T08:26:06.899Z,99.90
2022-10-25T08:30:10.788Z,99.90
2022-10-25T08:34:13.732Z,99.90
2022-10-25T08:38:18.114Z,99.90
2022-10-25T08:42:25.964Z,99.90
2022-10-25T08:46:32.572Z,99.90
2022-10-25T08:50:39.707Z,99.90
2022-10-25T08:54:46.651Z,99.90
2022-10-25T08:58:54.060Z,99.90
2022-10-25T09:02:58.533Z,99.90
2022-10-25T09:07:11.169Z,99.90
2022-10-25T09:11:27.503Z,99.90
2022-10-25T09:15:44.351Z,99.90
2022-10-25T09:20:03.275Z,99.90
2022-10-25T09:24:11.478Z,99.80
2022-10-25T09:28:20.029Z,99.00
2022-10-25T09:32:27.040Z,98.50
2022-10-25T09:36:34.473Z,98.50
2022-10-25T09:40:47.929Z,98.70
2022-10-25T09:44:55.670Z,98.40
2022-10-25T09:49:03.480Z,98.20
2022-10-25T09:53:12.350Z,98.50
2022-10-25T09:57:15.150Z,98.80
2022-10-25T10:01:23.439Z,98.60
2022-10-25T10:05:26.483Z,98.10
2022-10-25T10:09:32.248Z,97.40
2022-10-25T10:13:39.789Z,97.30
2022-10-25T10:17:44.078Z,97.70
2022-10-25T10:21:49.029Z,97.50
2022-10-25T10:25:51.788Z,97.70
2022-10-25T10:30:00.753Z,97.70
2022-10-25T10:34:05.620Z,97.90
2022-10-25T10:38:15.343Z,97.80
2022-10-25T10:42:19.668Z,97.80
2022-10-25T10:46:24.642Z,97.90
2022-10-25T10:50:32.590Z,97.90
2022-10-25T10:54:39.419Z,97.60
2022-10-25T10:58:53.263Z,97.20
2022-10-25T11:07:21.200Z,97.00
2022-10-25T11:11:24.740Z,96.70
2022-10-25T11:15:29.918Z,96.00
2022-10-25T11:19:51.967Z,96.30
2022-10-25T11:24:07.390Z,96.50
2022-10-25T11:28:24.177Z,96.20
2022-10-25T11:33:01.491Z,95.90
2022-10-25T11:37:15.693Z,95.80
2022-10-25T11:41:30.042Z,96.40
2022-10-25T11:45:41.101Z,95.40
2022-10-25T11:49:57.955Z,94.70
2022-10-25T11:54:14.388Z,94.60
2022-10-25T11:58:30.702Z,95.20
2022-10-25T12:02:47.008Z,95.50
2022-10-25T12:06:55.108Z,96.00
2022-10-25T12:11:03.921Z,96.60
2022-10-25T12:15:19.929Z,97.10
2022-10-25T12:19:28.098Z,97.00
2022-10-25T12:23:46.172Z,97.30
2022-10-25T12:27:56.632Z,97.50
2022-10-25T12:32:04.096Z,97.60
2022-10-25T12:36:11.459Z,97.30
2022-10-25T12:40:17.469Z,97.40
2022-10-25T12:44:36.868Z,97.00
2022-10-25T12:49:08.812Z,96.90
2022-10-25T12:53:45.000Z,96.60
2022-10-25T12:57:58.699Z,96.20
2022-10-25T13:02:26.714Z,95.60
2022-10-25T13:06:34.523Z,95.80
2022-10-25T13:10:48.332Z,95.40
2022-10-25T13:14:53.739Z,95.20
2022-10-25T13:19:49.379Z,95.10
2022-10-25T13:24:10.121Z,95.40
2022-10-25T13:28:20.897Z,95.60
2022-10-25T13:32:23.747Z,95.60
2022-10-25T13:36:47.503Z,95.60
2022-10-25T13:41:07.695Z,95.20
2022-10-25T13:45:22.750Z,95.20
2022-10-25T13:49:36.046Z,95.10
2022-10-25T13:53:42.455Z,95.40
2022-10-25T13:57:52.762Z,95.00
2022-10-25T14:01:56.558Z,95.10
2022-10-25T14:06:25.470Z,95.10
2022-10-25T14:10:33.969Z,95.30
2022-10-25T14:14:56.938Z,95.40
2022-10-25T14:19:03.894Z,95.40
2022-10-25T14:23:14.819Z,95.60
2022-10-25T14:27:29.944Z,95.80
2022-10-25T14:31:34.155Z,96.00
2022-10-25T14:35:47.895Z,96.00
2022-10-25T14:39:54.991Z,95.70
2022-10-25T14:43:58.962Z,95.10
2022-10-25T14:48:13.459Z,94.70
2022-10-25T14:52:16.865Z,93.80
2022-10-25T14:56:25.733Z,93.70
2022-10-25T15:00:28.998Z,93.50
2022-10-25T15:04:39.900Z,94.00
2022-10-25T15:08:47.834Z,94.40
2022-10-25T15:12:53.613Z,94.30
2022-10-25T15:17:03.178Z,94.40
2022-10-25T15:21:10.269Z,94.50
2022-10-25T15:25:29.343Z,94.80
2022-10-25T15:33:49.294Z,95.70
2022-10-25T15:37:53.863Z,95.70
2022-10-25T15:41:56.669Z,95.90
2022-10-25T15:46:01.476Z,96.10
2022-10-25T15:50:11.486Z,96.60
2022-10-25T15:54:18.576Z,96.50
2022-10-25T15:58:21.373Z,96.70
2022-10-25T16:02:28.282Z,96.70
2022-10-25T16:06:31.104Z,97.00
2022-10-25T16:10:35.287Z,97.10
2022-10-25T16:14:38.550Z,97.20
2022-10-25T16:18:41.388Z,97.20
2022-10-25T16:22:44.362Z,97.60
2022-10-25T16:26:51.138Z,98.00
2022-10-25T16:30:54.052Z,98.50
2022-10-25T16:34:56.949Z,98.40
2022-10-25T16:39:00.978Z,98.60
2022-10-25T16:43:05.628Z,98.90
2022-10-25T16:47:08.494Z,99.00
2022-10-25T16:51:13.683Z,99.10
2022-10-25T16:55:16.731Z,99.20
2022-10-25T16:59:20.974Z,99.20
2022-10-25T17:03:23.987Z,99.30
2022-10-25T17:07:26.889Z,99.40
2022-10-25T17:11:29.745Z,99.30
2022-10-25T17:15:34.216Z,99.30
2022-10-25T17:19:37.437Z,99.30
2022-10-25T17:23:40.590Z,99.30
2022-10-25T17:27:47.842Z,99.40
2022-10-25T17:31:52.480Z,99.60
2022-10-25T17:35:55.703Z,99.40
2022-10-25T17:39:58.520Z,99.70
2022-10-25T17:44:01.530Z,99.70
2022-10-25T17:48:06.505Z,99.70
2022-10-25T17:52:10.554Z,99.80
2022-10-25T17:56:15.084Z,99.80
2022-10-25T18:00:18.147Z,99.60
2022-10-25T18:04:22.910Z,99.70
2022-10-25T18:08:25.801Z,99.70
2022-10-25T18:12:28.682Z,99.50
2022-10-25T18:16:32.432Z,99.40
2022-10-25T18:20:40.420Z,99.60
2022-10-25T18:24:43.522Z,99.70
2022-10-25T18:28:46.460Z,99.90
2022-10-25T18:32:49.669Z,99.90
2022-10-25T18:36:54.296Z,99.90
2022-10-25T18:40:57.734Z,99.90
2022-10-25T18:45:00.640Z,99.90
2022-10-25T18:49:03.638Z,99.80
2022-10-25T18:53:08.972Z,99.80
2022-10-25T18:57:13.460Z,99.80
2022-10-25T19:01:20.385Z,99.90
2022-10-25T19:05:24.214Z,99.90
2022-10-25T19:09:28.423Z,99.90
2022-10-25T19:13:31.440Z,99.90
2022-10-25T19:17:34.299Z,99.90
2022-10-25T19:21:37.493Z,99.90
2022-10-25T19:25:42.012Z,99.90
2022-10-25T19:29:44.825Z,99.90
2022-10-25T19:33:48.210Z,99.90
2022-10-25T19:37:51.436Z,99.90
2022-10-25T19:41:55.862Z,99.90
2022-10-25T19:45:59.868Z,99.90
2022-10-25T19:50:05.404Z,99.90
2022-10-25T19:54:08.570Z,99.90
2022-10-25T19:58:12.981Z,99.90
2022-10-25T20:02:15.887Z,99.90
2022-10-25T20:06:24.449Z,99.90
2022-10-25T20:10:27.962Z,99.90
2022-10-25T20:14:33.335Z,99.90
2022-10-25T20:18:38.534Z,99.90
2022-10-25T20:22:41.353Z,99.90
2022-10-25T20:26:49.240Z,99.90
2022-10-25T20:30:53.428Z,99.90
2022-10-25T20:34:56.397Z,99.90
2022-10-25T20:43:26.007Z,99.90
2022-10-25T20:47:30.222Z,99.90
2022-10-25T20:51:33.031Z,99.90
2022-10-25T20:55:35.847Z,99.90
2022-10-25T20:59:38.690Z,99.90
2022-10-25T21:03:43.164Z,99.90
2022-10-25T21:07:46.339Z,99.90
2022-10-25T21:11:49.423Z,99.90
2022-10-25T21:15:52.776Z,99.90
2022-10-25T21:19:57.125Z,99.90
2022-10-25T21:24:00.444Z,99.90
2022-10-25T21:28:03.295Z,99.90
2022-10-25T21:32:06.440Z,99.90
2022-10-25T21:36:13.189Z,99.90
2022-10-25T21:40:16.523Z,99.90
2022-10-25T21:44:19.524Z,99.90
2022-10-25T21:48:22.343Z,99.90
2022-10-25T21:52:26.525Z,99.90
2022-10-25T21:56:31.247Z,99.90
2022-10-25T22:00:34.591Z,99.90
2022-10-25T22:04:39.530Z,99.90
2022-10-25T22:08:44.581Z,99.90
2022-10-25T22:12:47.551Z,99.90
2022-10-25T22:16:50.552Z,99.90
2022-10-25T22:20:58.388Z,99.90
2022-10-25T22:25:02.548Z,99.90
2022-10-25T22:29:05.763Z,99.90
2022-10-25T22:33:08.580Z,99.90
2022-10-25T22:37:11.376Z,99.90
2022-10-25T22:41:16.872Z,99.90
2022-10-25T22:45:19.710Z,99.90
2022-10-25T22:49:22.831Z,99.90
2022-10-25T22:53:25.617Z,99.90
2022-10-25T22:57:31.600Z,99.90
2022-10-25T23:01:36.125Z,99.90
2022-10-25T23:05:38.937Z,99.90
2022-10-25T23:09:41.724Z,99.90
2022-10-25T23:13:45.954Z,99.90
2022-10-25T23:17:48.758Z,99.90
2022-10-25T23:21:51.562Z,99.90
2022-10-25T23:25:54.767Z,99.90
2022-10-25T23:29:59.262Z,99.90
2022-10-25T23:34:02.192Z,99.90
2022-10-25T23:38:05.310Z,99.90
2022-10-25T23:42:08.088Z,99.90
2022-10-25T23:46:12.389Z,99.90
2022-10-25T23:50:15.240Z,99.90
2022-10-25T23:54:18.040Z,99.90
2022-10-25T23:58:21.264Z,99.90
